Chivu Airport


Codes: FVCV/
Name: Chivu Airport
City: Chivu
Country: Zimbabwe
Elevation: 4790 ft.

Photos at Chivu Airport


   Photos courtesy of SpottingLog. You can add your own sightings and photos by signing up for a free trial today.



No photos found.

Weather at Chivu Airport


Time (UTC)DescriptionTempratureWindCloud coverageVisibilityPressureHumidity
19-Apr-2024 03:00Clear Sky13°C7 mph, SE0%10000m1021hPa97%
19-Apr-2024 06:00Clear Sky15°C9 mph, SE1%10000m1021hPa89%
19-Apr-2024 09:00Clear Sky21°C9 mph, SE0%10000m1020hPa53%
19-Apr-2024 12:00Clear Sky27°C9 mph, SE0%10000m1015hPa26%
19-Apr-2024 15:00Clear Sky25°C9 mph, SE1%10000m1016hPa32%
19-Apr-2024 18:00Clear Sky18°C9 mph, SE0%10000m1019hPa52%
19-Apr-2024 21:00Clear Sky17°C11 mph, SE0%10000m1019hPa60%
20-Apr-2024 00:00Clear Sky15°C9 mph, SE0%10000m1018hPa69%
20-Apr-2024 03:00Clear Sky12°C7 mph, SE0%10000m1019hPa82%
20-Apr-2024 06:00Clear Sky19°C9 mph, SE0%10000m1019hPa54%
20-Apr-2024 09:00Clear Sky25°C13 mph, SE0%10000m1017hPa26%
20-Apr-2024 12:00Clear Sky27°C11 mph, SE0%10000m1014hPa22%
20-Apr-2024 15:00Clear Sky24°C9 mph, SE0%10000m1014hPa27%
20-Apr-2024 18:00Clear Sky16°C7 mph, SE0%10000m1018hPa46%
20-Apr-2024 21:00Clear Sky14°C7 mph, SE0%10000m1019hPa57%
21-Apr-2024 00:00Clear Sky13°C7 mph, SE0%10000m1018hPa63%
21-Apr-2024 03:00Clear Sky12°C4 mph, SE0%10000m1017hPa68%
21-Apr-2024 06:00Clear Sky19°C7 mph, SE0%10000m1018hPa44%
21-Apr-2024 09:00Clear Sky27°C11 mph, SE0%10000m1015hPa16%
21-Apr-2024 12:00Clear Sky29°C11 mph, SE0%10000m1012hPa12%
21-Apr-2024 15:00Clear Sky25°C9 mph, SE0%10000m1013hPa19%
21-Apr-2024 18:00Clear Sky17°C7 mph, E0%10000m1017hPa35%
21-Apr-2024 21:00Clear Sky15°C7 mph, SE0%10000m1018hPa42%
22-Apr-2024 00:00Clear Sky14°C4 mph, SE0%10000m1017hPa50%
22-Apr-2024 03:00Clear Sky13°C4 mph, SE0%10000m1018hPa55%
22-Apr-2024 06:00Clear Sky20°C4 mph, E0%10000m1018hPa34%
22-Apr-2024 09:00Clear Sky28°C11 mph, E0%10000m1015hPa12%
22-Apr-2024 12:00Clear Sky30°C13 mph, SE0%10000m1013hPa11%
22-Apr-2024 15:00Clear Sky26°C9 mph, SE0%10000m1014hPa18%
22-Apr-2024 18:00Clear Sky18°C7 mph, E0%10000m1017hPa31%
22-Apr-2024 21:00Clear Sky15°C7 mph, SE0%10000m1018hPa37%
23-Apr-2024 00:00Clear Sky14°C4 mph, E0%10000m1017hPa40%
23-Apr-2024 03:00Clear Sky13°C4 mph, E0%10000m1018hPa42%
23-Apr-2024 06:00Clear Sky21°C4 mph, SE0%10000m1018hPa27%
23-Apr-2024 09:00Clear Sky28°C11 mph, SE0%10000m1016hPa12%
23-Apr-2024 12:00Clear Sky30°C13 mph, SE0%10000m1014hPa11%
23-Apr-2024 15:00Clear Sky26°C11 mph, E0%10000m1015hPa16%
23-Apr-2024 18:00Clear Sky17°C7 mph, SE0%10000m1018hPa30%
23-Apr-2024 21:00Clear Sky14°C7 mph, SE0%10000m1019hPa40%
24-Apr-2024 00:00Clear Sky14°C7 mph, E0%10000m1018hPa43%